createdAt,value
2023-04-22T00:01:12.930Z,89.20
2023-04-22T00:03:42.274Z,89.45
2023-04-22T00:06:09.647Z,89.30
2023-04-22T00:08:36.961Z,90.15
2023-04-22T00:11:04.217Z,92.51
2023-04-22T00:13:31.354Z,93.23
2023-04-22T00:15:58.434Z,93.15
2023-04-22T00:18:26.090Z,92.91
2023-04-22T00:20:53.224Z,91.93
2023-04-22T00:23:20.744Z,92.47
2023-04-22T00:25:47.877Z,92.45
2023-04-22T00:28:14.970Z,91.90
2023-04-22T00:30:42.171Z,92.80
2023-04-22T00:33:09.492Z,94.95
2023-04-22T00:35:36.935Z,93.45
2023-04-22T00:38:04.056Z,93.36
2023-04-22T00:40:31.293Z,92.50
2023-04-22T00:42:59.705Z,92.23
2023-04-22T00:45:27.219Z,92.83
2023-04-22T00:47:54.959Z,92.40
2023-04-22T00:50:22.120Z,93.42
2023-04-22T00:52:49.484Z,92.56
2023-04-22T00:55:16.615Z,93.91
2023-04-22T00:57:44.329Z,93.42
2023-04-22T01:00:11.687Z,93.62
2023-04-22T01:02:39.118Z,92.92
2023-04-22T01:05:09.420Z,91.83
2023-04-22T01:07:36.803Z,91.22
2023-04-22T01:10:04.732Z,91.60
2023-04-22T01:12:31.806Z,92.82
2023-04-22T01:14:58.952Z,95.59
2023-04-22T01:17:26.077Z,96.37
2023-04-22T01:19:53.322Z,98.67
2023-04-22T01:22:20.864Z,98.84
2023-04-22T01:24:47.963Z,96.89
2023-04-22T01:27:15.080Z,96.45
2023-04-22T01:29:42.549Z,96.38
2023-04-22T01:32:10.490Z,95.69
2023-04-22T01:34:37.609Z,95.65
2023-04-22T01:37:05.909Z,94.66
2023-04-22T01:39:33.193Z,94.28
2023-04-22T01:42:02.107Z,94.39
2023-04-22T01:44:29.288Z,94.37
2023-04-22T01:46:57.157Z,95.23
2023-04-22T01:49:24.242Z,95.93
2023-04-22T01:51:51.409Z,96.16
2023-04-22T01:54:21.000Z,96.13
2023-04-22T01:56:54.514Z,97.17
2023-04-22T01:59:22.080Z,95.90
2023-04-22T02:01:50.286Z,95.91
2023-04-22T02:04:18.672Z,96.30
2023-04-22T02:06:45.735Z,96.36
2023-04-22T02:09:12.847Z,95.76
2023-04-22T02:11:39.884Z,95.74
2023-04-22T02:14:07.008Z,96.45
2023-04-22T02:16:34.187Z,96.49
2023-04-22T02:19:01.355Z,96.65
2023-04-22T02:21:29.419Z,96.80
2023-04-22T02:23:56.560Z,96.12
2023-04-22T02:26:24.984Z,96.63
2023-04-22T02:28:52.676Z,96.41
2023-04-22T02:31:19.871Z,97.29
2023-04-22T02:33:46.973Z,97.68
2023-04-22T02:36:15.449Z,97.37
2023-04-22T02:38:42.597Z,97.72
2023-04-22T02:41:09.724Z,99.13
2023-04-22T02:43:37.291Z,100.00
2023-04-22T02:46:04.921Z,100.00
2023-04-22T02:48:32.174Z,100.00
2023-04-22T02:50:59.224Z,99.91
2023-04-22T02:53:26.334Z,100.00
2023-04-22T02:55:55.720Z,100.00
2023-04-22T02:58:22.957Z,100.00
2023-04-22T03:00:50.124Z,99.27
2023-04-22T03:03:17.531Z,99.00
2023-04-22T03:05:44.723Z,99.41
2023-04-22T03:08:11.780Z,99.16
2023-04-22T03:10:38.960Z,99.19
2023-04-22T03:13:06.952Z,99.00
2023-04-22T03:15:34.264Z,100.00
2023-04-22T03:18:01.410Z,100.00
2023-04-22T03:20:29.147Z,100.00
2023-04-22T03:22:56.237Z,100.00
2023-04-22T03:25:24.842Z,99.62
2023-04-22T03:27:56.136Z,100.00
2023-04-22T03:30:23.904Z,99.78
2023-04-22T03:32:52.541Z,99.29
2023-04-22T03:35:32.771Z,99.36
2023-04-22T03:38:01.678Z,100.00
2023-04-22T03:40:33.098Z,100.00
2023-04-22T03:43:03.678Z,100.00
2023-04-22T03:45:30.918Z,100.00
2023-04-22T03:48:12.505Z,100.00
2023-04-22T03:50:45.060Z,100.00
2023-04-22T03:53:12.797Z,100.00
2023-04-22T03:55:40.143Z,100.00
2023-04-22T03:58:07.303Z,100.00
2023-04-22T04:00:34.807Z,100.00
2023-04-22T04:03:10.124Z,100.00
2023-04-22T04:05:37.652Z,100.00
2023-04-22T04:08:04.826Z,100.00
2023-04-22T04:10:32.795Z,100.00
2023-04-22T04:13:00.873Z,100.00
2023-04-22T04:15:32.641Z,100.00
2023-04-22T04:18:01.413Z,100.00
2023-04-22T04:20:31.266Z,100.00
2023-04-22T04:22:59.138Z,100.00
2023-04-22T04:25:26.939Z,99.97
2023-04-22T04:27:54.333Z,100.00
2023-04-22T04:30:21.860Z,99.43
2023-04-22T04:32:54.136Z,99.53
2023-04-22T04:35:21.530Z,98.98
2023-04-22T04:37:53.896Z,100.00
2023-04-22T04:40:22.004Z,100.00
2023-04-22T04:43:09.549Z,100.00
2023-04-22T04:45:48.382Z,100.00
2023-04-22T04:48:19.826Z,100.00
2023-04-22T04:50:54.122Z,100.00
2023-04-22T04:53:22.623Z,100.00
2023-04-22T04:55:49.848Z,100.00
2023-04-22T04:58:22.903Z,100.00
2023-04-22T05:01:03.012Z,100.00
2023-04-22T05:03:30.734Z,100.00
2023-04-22T05:05:58.138Z,100.00
2023-04-22T05:08:26.875Z,100.00
2023-04-22T05:11:00.816Z,100.00
2023-04-22T05:13:28.188Z,100.00
2023-04-22T05:15:56.103Z,99.50
2023-04-22T05:18:23.864Z,97.94
2023-04-22T05:20:51.081Z,97.53
2023-04-22T05:23:20.288Z,97.66
2023-04-22T05:25:52.792Z,97.99
2023-04-22T05:28:20.825Z,97.59
2023-04-22T05:30:52.299Z,96.86
2023-04-22T05:33:19.397Z,97.09
2023-04-22T05:35:46.537Z,97.26
2023-04-22T05:38:13.662Z,97.77
2023-04-22T05:40:42.383Z,98.72
2023-04-22T05:43:12.183Z,96.87
2023-04-22T05:45:43.001Z,96.48
2023-04-22T05:48:12.551Z,94.71
2023-04-22T05:50:47.489Z,94.03
2023-04-22T05:53:14.886Z,96.06
2023-04-22T05:55:44.072Z,94.66
2023-04-22T05:58:11.221Z,95.73
2023-04-22T06:00:49.768Z,95.02
2023-04-22T06:03:39.872Z,96.05
2023-04-22T06:06:07.450Z,95.00
2023-04-22T06:08:34.687Z,94.47
2023-04-22T06:11:01.738Z,95.70
2023-04-22T06:13:31.744Z,95.29
2023-04-22T06:15:58.984Z,94.47
2023-04-22T06:18:27.443Z,94.33
2023-04-22T06:20:55.830Z,94.31
2023-04-22T06:23:23.060Z,93.35
2023-04-22T06:25:50.245Z,93.87
2023-04-22T06:28:17.836Z,93.98
2023-04-22T06:30:46.288Z,92.73
2023-04-22T06:33:13.598Z,88.43
2023-04-22T06:35:41.262Z,84.75
2023-04-22T06:38:08.389Z,78.38
2023-04-22T06:40:43.806Z,72.66
2023-04-22T06:43:19.573Z,65.94
2023-04-22T06:46:09.462Z,54.27
2023-04-22T06:48:51.660Z,52.53
2023-04-22T06:51:54.167Z,50.50
2023-04-22T06:54:21.370Z,54.23
2023-04-22T06:56:48.783Z,56.54
2023-04-22T06:59:15.995Z,59.13
2023-04-22T07:01:43.198Z,61.07
2023-04-22T07:04:10.316Z,60.52
2023-04-22T07:06:37.686Z,64.82
2023-04-22T07:09:05.298Z,65.13
2023-04-22T07:11:32.960Z,67.27
2023-04-22T07:14:03.680Z,68.06
2023-04-22T07:16:30.796Z,67.54
2023-04-22T07:18:59.176Z,67.66
2023-04-22T07:21:26.366Z,67.92
2023-04-22T07:23:53.462Z,66.25
2023-04-22T07:26:21.142Z,65.99
2023-04-22T07:28:48.212Z,67.60
2023-04-22T07:31:15.836Z,65.28
2023-04-22T07:33:43.181Z,65.23
2023-04-22T07:36:10.364Z,64.17
2023-04-22T07:38:37.696Z,60.54
2023-04-22T07:41:04.784Z,62.47
2023-04-22T07:43:31.799Z,60.22
2023-04-22T07:45:58.912Z,61.98
2023-04-22T07:48:26.055Z,59.30
2023-04-22T07:50:53.094Z,58.55
2023-04-22T07:53:20.681Z,59.34
2023-04-22T07:55:49.718Z,60.36
2023-04-22T07:58:17.240Z,61.63
2023-04-22T08:00:44.303Z,60.61
2023-04-22T08:03:11.618Z,59.11
2023-04-22T08:05:38.909Z,57.02
2023-04-22T08:08:06.309Z,60.07
2023-04-22T08:10:33.404Z,59.06
2023-04-22T08:13:00.908Z,57.51
2023-04-22T08:15:28.013Z,58.48
2023-04-22T08:17:55.184Z,58.14
2023-04-22T08:20:22.370Z,56.50
2023-04-22T08:22:51.278Z,53.63
2023-04-22T08:25:18.414Z,56.52
2023-04-22T08:27:45.577Z,55.43
2023-04-22T08:30:12.922Z,54.45
2023-04-22T08:32:40.112Z,56.14
2023-04-22T08:35:07.409Z,55.01
2023-04-22T08:37:34.685Z,54.73
2023-04-22T08:40:02.143Z,52.91
2023-04-22T08:42:30.691Z,52.88
2023-04-22T08:44:58.451Z,53.39
2023-04-22T08:47:26.482Z,53.23
2023-04-22T08:49:55.016Z,50.58
2023-04-22T08:52:22.096Z,53.30
2023-04-22T08:54:49.272Z,54.53
2023-04-22T08:57:17.518Z,50.47
2023-04-22T08:59:45.164Z,50.47
2023-04-22T09:02:15.950Z,49.18
2023-04-22T09:04:43.335Z,48.17
2023-04-22T09:07:10.755Z,49.84
2023-04-22T09:09:38.608Z,49.37
2023-04-22T09:12:06.472Z,48.73
2023-04-22T09:14:33.864Z,47.36
2023-04-22T09:17:02.830Z,50.88
2023-04-22T09:19:29.970Z,49.00
2023-04-22T09:21:59.980Z,47.87
2023-04-22T09:24:27.171Z,48.11
2023-04-22T09:26:55.326Z,47.92
2023-04-22T09:29:22.386Z,47.42
2023-04-22T09:31:50.462Z,45.15
2023-04-22T09:34:17.589Z,46.19
2023-04-22T09:36:46.778Z,44.96
2023-04-22T09:39:14.548Z,46.14
2023-04-22T09:41:41.707Z,44.53
2023-04-22T09:44:16.033Z,42.80
2023-04-22T09:46:44.069Z,43.99
2023-04-22T09:49:11.412Z,43.96
2023-04-22T09:51:40.519Z,43.57
2023-04-22T09:54:11.641Z,43.43
2023-04-22T09:56:52.129Z,44.91
2023-04-22T09:59:20.792Z,44.82
2023-04-22T10:01:48.531Z,45.22
2023-04-22T10:04:16.452Z,45.37
2023-04-22T10:06:43.628Z,45.50
2023-04-22T10:09:12.335Z,45.92
2023-04-22T10:11:40.708Z,46.44
2023-04-22T10:14:10.608Z,45.73
2023-04-22T10:16:38.645Z,46.84
2023-04-22T10:19:07.289Z,45.73
2023-04-22T10:21:34.800Z,45.90
2023-04-22T10:24:01.855Z,44.88
2023-04-22T10:26:43.940Z,44.99
2023-04-22T10:29:17.237Z,44.22
2023-04-22T10:31:45.542Z,44.83
2023-04-22T10:34:13.646Z,44.47
2023-04-22T10:36:57.227Z,45.01
2023-04-22T10:39:25.462Z,45.44
2023-04-22T10:41:53.985Z,46.30
2023-04-22T10:44:22.550Z,45.43
2023-04-22T10:46:52.971Z,45.99
2023-04-22T10:49:23.608Z,45.07
2023-04-22T10:51:51.814Z,44.21
2023-04-22T10:54:44.619Z,44.27
2023-04-22T10:57:19.358Z,44.13
2023-04-22T10:59:53.860Z,44.92
2023-04-22T11:02:22.083Z,44.84
2023-04-22T11:04:50.040Z,44.38
2023-04-22T11:07:26.959Z,45.65
2023-04-22T11:10:01.692Z,44.82
2023-04-22T11:12:35.086Z,43.51
2023-04-22T11:15:05.375Z,43.24
2023-04-22T11:17:32.718Z,43.08
2023-04-22T11:20:00.238Z,43.62
2023-04-22T11:22:27.708Z,42.27
2023-04-22T11:24:58.340Z,42.96
2023-04-22T11:27:30.273Z,44.14
2023-04-22T11:30:09.856Z,45.48
2023-04-22T11:32:38.017Z,43.73
2023-04-22T11:35:14.963Z,43.83
2023-04-22T11:37:42.100Z,44.64
2023-04-22T11:40:28.254Z,41.54
2023-04-22T11:42:57.647Z,40.37
2023-04-22T11:45:24.992Z,42.51
2023-04-22T11:47:52.554Z,40.90
2023-04-22T11:50:23.887Z,40.22
2023-04-22T11:52:57.068Z,40.40
2023-04-22T11:55:24.817Z,41.13
2023-04-22T11:57:56.384Z,40.10
2023-04-22T12:00:24.756Z,40.96
2023-04-22T12:02:58.969Z,42.26
2023-04-22T12:05:32.672Z,42.62
2023-04-22T12:08:00.420Z,41.93
2023-04-22T12:10:27.554Z,43.54
2023-04-22T12:12:54.748Z,41.57
2023-04-22T12:15:21.864Z,42.62
2023-04-22T12:17:52.705Z,42.33
2023-04-22T12:20:19.964Z,43.47
2023-04-22T12:22:47.046Z,42.70
2023-04-22T12:25:17.616Z,42.40
2023-04-22T12:27:44.768Z,41.84
2023-04-22T12:30:12.155Z,42.80
2023-04-22T12:32:39.401Z,43.28
2023-04-22T12:35:08.532Z,42.11
2023-04-22T12:37:35.859Z,41.63
2023-04-22T12:40:04.003Z,43.21
2023-04-22T12:42:31.319Z,42.63
2023-04-22T12:44:58.342Z,42.82
2023-04-22T12:47:25.462Z,44.16
2023-04-22T12:49:52.647Z,43.40
2023-04-22T12:52:19.690Z,45.07
2023-04-22T12:54:46.813Z,43.68
2023-04-22T12:57:13.894Z,46.48
2023-04-22T12:59:41.300Z,47.07
2023-04-22T13:02:08.712Z,46.15
2023-04-22T13:04:36.060Z,45.26
2023-04-22T13:07:03.269Z,46.22
2023-04-22T13:09:30.497Z,46.03
2023-04-22T13:11:58.323Z,47.51
2023-04-22T13:14:25.590Z,47.20
2023-04-22T13:16:52.694Z,46.65
2023-04-22T13:19:19.907Z,47.23
2023-04-22T13:21:46.988Z,47.55
2023-04-22T13:24:14.053Z,48.50
2023-04-22T13:26:41.232Z,46.74
2023-04-22T13:29:11.170Z,46.82
2023-04-22T13:31:38.723Z,46.70
2023-04-22T13:34:05.941Z,48.55
2023-04-22T13:36:33.093Z,49.44
2023-04-22T13:39:00.562Z,49.02
2023-04-22T13:41:27.668Z,48.57
2023-04-22T13:43:56.132Z,49.05
2023-04-22T13:46:23.433Z,49.38
2023-04-22T13:48:50.564Z,47.60
2023-04-22T13:51:17.682Z,47.59
2023-04-22T13:53:45.152Z,45.82
2023-04-22T13:56:12.778Z,46.06
2023-04-22T13:58:40.953Z,45.29
2023-04-22T14:01:08.172Z,46.30
2023-04-22T14:03:35.946Z,45.65
2023-04-22T14:06:03.882Z,45.21
2023-04-22T14:08:31.001Z,46.44
2023-04-22T14:10:59.404Z,45.84
2023-04-22T14:13:27.178Z,45.79
2023-04-22T14:15:54.297Z,46.27
2023-04-22T14:18:24.423Z,45.43
2023-04-22T14:20:52.391Z,43.67
2023-04-22T14:23:19.775Z,44.52
2023-04-22T14:25:47.632Z,45.79
2023-04-22T14:28:15.236Z,45.37
2023-04-22T14:30:42.813Z,45.89
2023-04-22T14:33:10.115Z,43.98
2023-04-22T14:35:37.672Z,44.67
2023-04-22T14:38:05.946Z,45.35
2023-04-22T14:40:33.203Z,45.00
2023-04-22T14:43:01.197Z,46.24
2023-04-22T14:45:29.123Z,46.85
2023-04-22T14:47:56.932Z,46.22
2023-04-22T14:50:24.111Z,46.07
2023-04-22T14:52:51.410Z,47.67
2023-04-22T14:55:23.183Z,46.75
2023-04-22T14:58:06.967Z,46.66
2023-04-22T15:00:34.159Z,46.87
2023-04-22T15:03:01.462Z,49.09
2023-04-22T15:05:28.811Z,47.34
2023-04-22T15:07:57.713Z,47.08
2023-04-22T15:10:24.900Z,46.37
2023-04-22T15:12:51.940Z,47.40
2023-04-22T15:15:19.463Z,47.33
2023-04-22T15:17:46.723Z,46.31
2023-04-22T15:20:13.813Z,46.95
2023-04-22T15:22:41.341Z,47.52
2023-04-22T15:25:09.186Z,46.89
2023-04-22T15:27:37.082Z,48.79
2023-04-22T15:30:06.024Z,47.13
2023-04-22T15:32:33.176Z,48.40
2023-04-22T15:35:00.890Z,48.29
2023-04-22T15:37:28.057Z,47.72
2023-04-22T15:39:55.251Z,48.45
2023-04-22T15:42:22.344Z,47.49
2023-04-22T15:44:49.456Z,46.65
2023-04-22T15:47:17.516Z,47.01
2023-04-22T15:49:44.688Z,46.86
2023-04-22T15:52:11.775Z,46.84
2023-04-22T15:54:38.945Z,47.55
2023-04-22T15:57:06.090Z,47.59
2023-04-22T15:59:33.136Z,46.43
2023-04-22T16:02:00.517Z,46.05
2023-04-22T16:04:28.204Z,47.73
2023-04-22T16:06:57.399Z,46.64
2023-04-22T16:09:24.528Z,46.49
2023-04-22T16:11:52.451Z,47.02
2023-04-22T16:14:19.581Z,47.47
2023-04-22T16:16:46.977Z,47.09
2023-04-22T16:19:14.394Z,44.82
2023-04-22T16:21:41.498Z,47.10
2023-04-22T16:24:08.762Z,46.74
2023-04-22T16:26:35.797Z,46.43
2023-04-22T16:29:02.971Z,47.12
2023-04-22T16:31:30.053Z,47.56
2023-04-22T16:33:58.486Z,47.91
2023-04-22T16:36:25.592Z,46.15
2023-04-22T16:38:52.775Z,45.96
2023-04-22T16:41:20.638Z,45.66
2023-04-22T16:43:47.792Z,46.88
2023-04-22T16:46:14.917Z,47.24
2023-04-22T16:48:42.084Z,46.73
2023-04-22T16:51:09.213Z,46.79
2023-04-22T16:53:36.362Z,47.41
2023-04-22T16:56:03.465Z,47.09
2023-04-22T16:58:30.595Z,47.35
2023-04-22T17:00:58.008Z,47.57
2023-04-22T17:03:25.505Z,46.94
2023-04-22T17:05:53.196Z,48.40
2023-04-22T17:08:20.327Z,48.45
2023-04-22T17:10:48.200Z,48.86
2023-04-22T17:13:15.442Z,47.00
2023-04-22T17:15:42.549Z,47.04
2023-04-22T17:18:09.699Z,47.10
2023-04-22T17:20:37.269Z,48.45
2023-04-22T17:23:04.474Z,48.84
2023-04-22T17:25:31.768Z,47.89
2023-04-22T17:27:58.886Z,49.83
2023-04-22T17:30:26.007Z,48.81
2023-04-22T17:32:53.179Z,50.19
2023-04-22T17:35:20.356Z,50.35
2023-04-22T17:37:47.461Z,50.39
2023-04-22T17:40:14.568Z,51.41
2023-04-22T17:45:11.929Z,52.89
2023-04-22T17:47:39.084Z,52.92
2023-04-22T17:50:06.756Z,53.83
2023-04-22T17:52:34.045Z,55.08
2023-04-22T17:55:01.079Z,55.84
2023-04-22T17:57:28.431Z,55.54
2023-04-22T17:59:55.668Z,56.17
2023-04-22T18:02:23.508Z,56.78
2023-04-22T18:04:50.919Z,57.48
2023-04-22T18:07:18.089Z,57.57
2023-04-22T18:09:45.600Z,57.91
2023-04-22T18:12:12.742Z,58.88
2023-04-22T18:14:39.872Z,59.68
2023-04-22T18:17:07.075Z,59.63
2023-04-22T18:19:34.220Z,59.76
2023-04-22T18:22:01.372Z,60.58
2023-04-22T18:24:28.636Z,60.80
2023-04-22T18:26:55.755Z,61.63
2023-04-22T18:29:22.838Z,61.85
2023-04-22T18:31:49.929Z,62.41
2023-04-22T18:34:17.038Z,62.86
2023-04-22T18:36:44.170Z,62.99
2023-04-22T18:39:11.459Z,62.98
2023-04-22T18:41:39.981Z,63.51
2023-04-22T18:44:07.092Z,64.70
2023-04-22T18:46:34.119Z,64.69
2023-04-22T18:49:01.323Z,64.57
2023-04-22T18:51:29.824Z,65.36
2023-04-22T18:53:57.017Z,65.81
2023-04-22T18:56:24.047Z,65.95
2023-04-22T18:58:51.444Z,65.89
2023-04-22T19:01:18.552Z,66.09
2023-04-22T19:03:46.460Z,66.29
2023-04-22T19:06:13.606Z,66.79
2023-04-22T19:08:40.840Z,67.34
2023-04-22T19:11:07.987Z,68.20
2023-04-22T19:13:35.192Z,68.04
2023-04-22T19:16:02.293Z,68.21
2023-04-22T19:18:29.559Z,69.10
2023-04-22T19:20:56.612Z,69.48
2023-04-22T19:23:23.910Z,69.48
2023-04-22T19:25:51.675Z,69.65
2023-04-22T19:28:18.957Z,69.99
2023-04-22T19:30:46.190Z,70.70
2023-04-22T19:33:13.262Z,70.39
2023-04-22T19:35:40.433Z,70.17
2023-04-22T19:38:07.660Z,71.75
2023-04-22T19:40:34.851Z,70.40
2023-04-22T19:43:02.032Z,69.06
2023-04-22T19:45:29.935Z,70.74
2023-04-22T19:47:57.212Z,70.02
2023-04-22T19:50:24.441Z,69.34
2023-04-22T19:52:57.711Z,68.31
2023-04-22T19:55:24.832Z,69.66
2023-04-22T19:57:52.120Z,69.74
2023-04-22T20:00:19.413Z,69.47
2023-04-22T20:02:46.783Z,68.12
2023-04-22T20:05:14.270Z,68.81
2023-04-22T20:07:43.076Z,69.19
2023-04-22T20:10:10.376Z,69.49
2023-04-22T20:12:37.556Z,70.79
2023-04-22T20:15:05.729Z,70.54
2023-04-22T20:17:35.912Z,70.62
2023-04-22T20:20:06.814Z,71.59
2023-04-22T20:22:34.894Z,71.12
2023-04-22T20:25:03.745Z,71.30
2023-04-22T20:27:32.381Z,70.80
2023-04-22T20:30:00.337Z,70.19
2023-04-22T20:32:28.070Z,70.45
2023-04-22T20:34:55.844Z,70.42
2023-04-22T20:37:23.484Z,68.93
2023-04-22T20:39:50.970Z,69.08
2023-04-22T20:42:18.764Z,71.41
2023-04-22T20:44:46.267Z,71.57
2023-04-22T20:47:13.833Z,70.73
2023-04-22T20:49:42.070Z,70.38
2023-04-22T20:52:09.739Z,71.93
2023-04-22T20:54:37.521Z,72.00
2023-04-22T20:57:05.973Z,71.96
2023-04-22T20:59:33.544Z,72.57
2023-04-22T21:02:00.920Z,73.68
2023-04-22T21:04:28.254Z,73.55
2023-04-22T21:06:56.088Z,73.09
2023-04-22T21:09:26.044Z,73.41
2023-04-22T21:11:53.397Z,74.44
2023-04-22T21:14:22.364Z,74.78
2023-04-22T21:17:10.308Z,75.57
2023-04-22T21:19:38.041Z,76.32
2023-04-22T21:22:06.187Z,76.94
2023-04-22T21:24:35.085Z,77.24
2023-04-22T21:27:02.947Z,77.57
2023-04-22T21:29:30.292Z,78.04
2023-04-22T21:32:08.252Z,78.10
2023-04-22T21:34:36.932Z,78.11
2023-04-22T21:37:04.947Z,78.12
2023-04-22T21:39:32.063Z,77.93
2023-04-22T21:41:59.105Z,78.22
2023-04-22T21:44:26.181Z,78.79
2023-04-22T21:46:53.247Z,78.40
2023-04-22T21:49:20.586Z,78.27
2023-04-22T21:51:47.842Z,79.05
2023-04-22T21:54:14.913Z,79.51
2023-04-22T21:56:42.052Z,78.84
2023-04-22T21:59:09.168Z,78.89
2023-04-22T22:01:36.262Z,78.71
2023-04-22T22:04:03.636Z,79.91
2023-04-22T22:06:30.860Z,79.42
2023-04-22T22:08:57.919Z,78.26
2023-04-22T22:11:31.019Z,79.03
2023-04-22T22:13:58.844Z,78.68
2023-04-22T22:16:26.150Z,79.07
2023-04-22T22:18:53.424Z,79.66
2023-04-22T22:21:20.460Z,79.90
2023-04-22T22:23:47.511Z,79.83
2023-04-22T22:26:14.587Z,80.54
2023-04-22T22:28:41.753Z,79.73
2023-04-22T22:31:09.009Z,80.31
2023-04-22T22:33:36.045Z,80.45
2023-04-22T22:36:03.160Z,80.57
2023-04-22T22:38:30.249Z,80.96
2023-04-22T22:40:57.336Z,80.89
2023-04-22T22:43:24.479Z,81.27
2023-04-22T22:45:51.577Z,80.45
2023-04-22T22:48:18.925Z,79.54
2023-04-22T22:50:49.120Z,79.51
2023-04-22T22:53:16.179Z,79.45
2023-04-22T22:55:43.259Z,80.15
2023-04-22T22:58:10.330Z,80.29
2023-04-22T23:00:37.442Z,80.86
2023-04-22T23:03:04.741Z,81.08
2023-04-22T23:05:31.963Z,82.19
2023-04-22T23:07:59.051Z,81.02
2023-04-22T23:10:26.184Z,81.57
2023-04-22T23:12:53.292Z,81.51
2023-04-22T23:15:20.385Z,82.75
2023-04-22T23:17:49.708Z,84.27
2023-04-22T23:20:17.338Z,83.29
2023-04-22T23:22:45.003Z,81.72
2023-04-22T23:25:12.447Z,80.76
2023-04-22T23:27:40.580Z,80.63
2023-04-22T23:30:07.979Z,81.73
2023-04-22T23:32:35.695Z,81.67
2023-04-22T23:35:03.716Z,81.85
2023-04-22T23:37:31.404Z,82.45
2023-04-22T23:39:58.563Z,81.52
2023-04-22T23:42:25.934Z,82.50
2023-04-22T23:44:52.947Z,82.23
2023-04-22T23:47:20.109Z,82.06
2023-04-22T23:49:47.614Z,82.87
2023-04-22T23:52:14.649Z,82.02
2023-04-22T23:54:42.106Z,82.60
2023-04-22T23:57:09.544Z,83.88
2023-04-22T23:59:36.743Z,84.21
